createdAt,value
2019-06-10T00:00:26.265Z,17.90
2019-06-10T00:02:53.766Z,17.80
2019-06-10T00:05:21.597Z,17.90
2019-06-10T00:07:51.476Z,17.90
2019-06-10T00:10:21.321Z,17.80
2019-06-10T00:12:47.953Z,17.80
2019-06-10T00:15:15.517Z,17.70
2019-06-10T00:17:53.380Z,17.60
2019-06-10T00:20:12.474Z,17.50
2019-06-10T00:22:40.889Z,17.50
2019-06-10T00:25:08.683Z,17.50
2019-06-10T00:27:36.679Z,17.40
2019-06-10T00:30:06.551Z,17.40
2019-06-10T00:32:34.023Z,17.30
2019-06-10T00:35:03.005Z,17.30
2019-06-10T00:37:31.544Z,17.30
2019-06-10T00:39:59.921Z,17.20
2019-06-10T00:42:31.303Z,17.20
2019-06-10T00:44:58.073Z,17.10
2019-06-10T00:47:25.585Z,17.10
2019-06-10T00:49:53.094Z,17.10
2019-06-10T00:52:21.353Z,17.00
2019-06-10T00:54:49.029Z,16.90
2019-06-10T00:57:16.846Z,16.80
2019-06-10T00:59:44.319Z,16.80
2019-06-10T01:02:14.060Z,16.80
2019-06-10T01:04:41.533Z,16.80
2019-06-10T01:07:11.255Z,16.70
2019-06-10T01:09:38.319Z,16.70
2019-06-10T01:12:06.885Z,16.60
2019-06-10T01:14:34.345Z,16.60
2019-06-10T01:17:01.789Z,16.60
2019-06-10T01:19:31.051Z,16.50
2019-06-10T01:21:58.653Z,16.50
2019-06-10T01:24:26.221Z,16.40
2019-06-10T01:26:53.673Z,16.40
2019-06-10T01:29:21.231Z,16.30
2019-06-10T01:31:51.048Z,16.30
2019-06-10T01:34:18.337Z,16.30
2019-06-10T01:36:45.968Z,16.20
2019-06-10T01:39:16.104Z,16.20
2019-06-10T01:41:43.355Z,16.20
2019-06-10T01:44:12.508Z,16.20
2019-06-10T01:46:41.063Z,16.10
2019-06-10T01:49:09.591Z,16.10
2019-06-10T01:51:38.219Z,16.10
2019-06-10T01:54:05.735Z,16.10
2019-06-10T01:56:33.069Z,16.10
2019-06-10T01:59:01.451Z,16.00
2019-06-10T02:01:45.007Z,16.00
2019-06-10T02:04:14.980Z,16.00
2019-06-10T02:06:41.781Z,16.00
2019-06-10T02:09:12.097Z,16.00
2019-06-10T02:11:41.199Z,16.00
2019-06-10T02:14:09.438Z,16.10
2019-06-10T02:16:37.407Z,16.00
2019-06-10T02:19:04.840Z,16.10
2019-06-10T02:21:32.308Z,16.00
2019-06-10T02:24:01.022Z,16.00
2019-06-10T02:26:30.754Z,16.00
2019-06-10T02:29:00.299Z,16.00
2019-06-10T02:31:36.358Z,16.00
2019-06-10T02:33:56.777Z,16.70
2019-06-10T02:36:31.193Z,15.90
2019-06-10T02:38:54.132Z,15.90
2019-06-10T02:41:29.597Z,15.90
2019-06-10T02:43:53.378Z,15.80
2019-06-10T02:46:28.139Z,15.80
2019-06-10T02:48:49.971Z,15.80
2019-06-10T02:51:19.937Z,15.80
2019-06-10T02:53:46.786Z,15.80
2019-06-10T02:56:14.899Z,15.80
2019-06-10T02:58:44.939Z,15.70
2019-06-10T03:01:16.366Z,15.70
2019-06-10T03:03:45.569Z,15.70
2019-06-10T03:06:14.434Z,15.70
2019-06-10T03:08:43.742Z,15.70
2019-06-10T03:11:13.703Z,15.70
2019-06-10T03:13:42.498Z,15.60
2019-06-10T03:16:25.740Z,15.60
2019-06-10T03:18:53.347Z,15.60
2019-06-10T03:21:23.132Z,15.70
2019-06-10T03:23:50.188Z,15.70
2019-06-10T03:26:17.685Z,15.80
2019-06-10T03:28:45.863Z,15.70
2019-06-10T03:31:15.503Z,15.70
2019-06-10T03:33:47.437Z,15.80
2019-06-10T03:36:12.402Z,15.80
2019-06-10T03:38:42.964Z,15.90
2019-06-10T03:41:12.260Z,15.80
2019-06-10T03:43:38.991Z,15.80
2019-06-10T03:46:06.491Z,15.80
2019-06-10T03:48:34.608Z,14.90
2019-06-10T03:51:03.364Z,15.80
2019-06-10T03:53:33.528Z,15.70
2019-06-10T03:56:02.249Z,15.80
2019-06-10T03:58:32.474Z,15.80
2019-06-10T04:00:59.297Z,15.80
2019-06-10T04:03:28.110Z,15.80
2019-06-10T04:05:56.117Z,15.80
2019-06-10T04:08:25.062Z,15.80
2019-06-10T04:10:52.863Z,15.80
2019-06-10T04:13:22.694Z,15.70
2019-06-10T04:15:50.104Z,15.70
2019-06-10T04:18:17.920Z,15.70
2019-06-10T04:20:45.779Z,15.60
2019-06-10T04:23:13.283Z,15.60
2019-06-10T04:25:42.923Z,15.70
2019-06-10T04:28:12.526Z,15.70
2019-06-10T04:30:39.862Z,15.80
2019-06-10T04:33:07.321Z,15.80
2019-06-10T04:35:34.778Z,15.90
2019-06-10T04:38:02.643Z,15.90
2019-06-10T04:40:30.057Z,16.00
2019-06-10T04:42:58.434Z,16.10
2019-06-10T04:45:26.531Z,16.20
2019-06-10T04:47:55.137Z,16.30
2019-06-10T04:50:33.351Z,16.30
2019-06-10T04:52:52.873Z,16.40
2019-06-10T04:55:23.141Z,16.40
2019-06-10T04:57:52.002Z,16.30
2019-06-10T05:00:19.423Z,16.40
2019-06-10T05:02:46.946Z,16.50
2019-06-10T05:05:14.507Z,16.50
2019-06-10T05:07:42.816Z,16.60
2019-06-10T05:10:12.407Z,16.60
2019-06-10T05:12:40.173Z,16.70
2019-06-10T05:15:08.048Z,16.80
2019-06-10T05:17:36.064Z,16.90
2019-06-10T05:20:04.657Z,17.00
2019-06-10T05:22:32.792Z,17.10
2019-06-10T05:25:02.490Z,17.20
2019-06-10T05:27:30.844Z,17.20
2019-06-10T05:29:59.186Z,17.20
2019-06-10T05:32:27.856Z,17.30
2019-06-10T05:34:56.010Z,17.30
2019-06-10T05:37:26.096Z,17.30
2019-06-10T05:39:52.833Z,17.40
2019-06-10T05:42:20.242Z,17.40
2019-06-10T05:44:48.091Z,17.40
2019-06-10T05:47:15.468Z,17.50
2019-06-10T05:49:43.211Z,17.50
2019-06-10T05:52:12.622Z,17.60
2019-06-10T05:54:40.389Z,17.60
2019-06-10T05:57:07.883Z,17.70
2019-06-10T05:59:35.966Z,17.70
2019-06-10T06:02:03.967Z,17.60
2019-06-10T06:04:33.053Z,17.60
2019-06-10T06:07:02.364Z,17.70
2019-06-10T06:09:33.280Z,17.70
2019-06-10T06:12:02.342Z,17.70
2019-06-10T06:14:29.702Z,17.80
2019-06-10T06:16:57.503Z,17.90
2019-06-10T06:19:26.076Z,17.90
2019-06-10T06:21:53.616Z,17.90
2019-06-10T06:24:22.038Z,17.80
2019-06-10T06:26:49.949Z,17.80
2019-06-10T06:29:17.398Z,17.90
2019-06-10T06:31:44.881Z,18.00
2019-06-10T06:34:13.865Z,18.10
2019-06-10T06:36:42.282Z,18.10
2019-06-10T06:39:12.655Z,18.00
2019-06-10T06:41:39.522Z,18.10
2019-06-10T06:44:06.982Z,17.90
2019-06-10T06:46:36.561Z,17.90
2019-06-10T06:49:03.719Z,18.00
2019-06-10T06:51:46.953Z,18.10
2019-06-10T06:54:03.087Z,18.30
2019-06-10T06:56:34.562Z,18.50
2019-06-10T06:59:02.371Z,18.50
2019-06-10T07:01:30.313Z,18.70
2019-06-10T07:03:58.962Z,18.70
2019-06-10T07:06:26.982Z,18.70
2019-06-10T07:09:04.319Z,18.80
2019-06-10T07:11:25.577Z,18.90
2019-06-10T07:13:54.446Z,18.80
2019-06-10T07:16:23.010Z,18.80
2019-06-10T07:18:53.687Z,18.80
2019-06-10T07:21:22.589Z,18.80
2019-06-10T07:23:49.795Z,18.90
2019-06-10T07:26:17.275Z,18.90
2019-06-10T07:28:47.529Z,19.00
2019-06-10T07:31:23.110Z,19.10
2019-06-10T07:33:46.970Z,19.10
2019-06-10T07:36:13.340Z,19.10
2019-06-10T07:38:43.697Z,19.10
2019-06-10T07:41:12.630Z,19.00
2019-06-10T07:43:44.234Z,19.10
2019-06-10T07:46:09.304Z,19.20
2019-06-10T07:48:38.531Z,19.20
2019-06-10T07:51:06.407Z,19.30
2019-06-10T07:53:35.256Z,19.40
2019-06-10T07:56:03.815Z,19.40
2019-06-10T07:58:33.337Z,19.60
2019-06-10T08:01:02.656Z,19.70
2019-06-10T08:03:32.595Z,19.60
2019-06-10T08:05:59.566Z,19.50
2019-06-10T08:08:27.343Z,19.50
2019-06-10T08:10:55.198Z,19.40
2019-06-10T08:13:22.743Z,19.50
2019-06-10T08:15:50.232Z,19.50
2019-06-10T08:18:17.813Z,19.50
2019-06-10T08:20:45.483Z,19.60
2019-06-10T08:23:14.389Z,19.50
2019-06-10T08:25:45.530Z,19.60
2019-06-10T08:28:13.372Z,19.60
2019-06-10T08:30:42.958Z,19.60
2019-06-10T08:33:10.010Z,19.70
2019-06-10T08:35:45.420Z,19.70
2019-06-10T08:38:07.100Z,19.70
2019-06-10T08:40:34.649Z,19.70
2019-06-10T08:43:04.251Z,19.70
2019-06-10T08:45:33.279Z,19.60
2019-06-10T08:48:02.772Z,19.60
2019-06-10T08:50:30.194Z,19.50
2019-06-10T08:53:10.434Z,19.60
2019-06-10T08:55:27.012Z,19.70
2019-06-10T08:57:54.614Z,19.90
2019-06-10T09:00:25.545Z,19.90
2019-06-10T09:02:53.919Z,20.00
2019-06-10T09:05:23.669Z,20.30
2019-06-10T09:07:54.188Z,20.50
2019-06-10T09:10:22.693Z,20.60
2019-06-10T09:12:54.182Z,20.80
2019-06-10T09:15:20.068Z,21.30
2019-06-10T09:17:49.600Z,21.60
2019-06-10T09:20:17.586Z,21.90
2019-06-10T09:22:49.805Z,22.00
2019-06-10T09:25:14.502Z,21.70
2019-06-10T09:27:44.969Z,21.50
2019-06-10T09:30:13.436Z,21.50
2019-06-10T09:32:42.638Z,21.60
2019-06-10T09:35:12.616Z,21.80
2019-06-10T09:37:42.650Z,21.70
2019-06-10T09:40:12.355Z,21.60
2019-06-10T09:42:43.593Z,21.60
2019-06-10T09:45:12.843Z,21.50
2019-06-10T09:47:42.614Z,21.60
2019-06-10T09:50:12.129Z,21.30
2019-06-10T09:52:41.566Z,21.40
2019-06-10T09:55:09.458Z,22.80
2019-06-10T09:57:36.909Z,21.50
2019-06-10T10:00:08.102Z,21.70
2019-06-10T10:02:35.991Z,21.80
2019-06-10T10:05:05.557Z,22.10
2019-06-10T10:07:33.959Z,22.20
2019-06-10T10:10:04.494Z,22.60
2019-06-10T10:12:32.732Z,22.00
2019-06-10T10:15:22.258Z,23.10
2019-06-10T10:17:29.610Z,23.10
2019-06-10T10:19:57.643Z,23.10
2019-06-10T10:22:25.107Z,23.00
2019-06-10T10:24:56.413Z,22.80
2019-06-10T10:27:23.357Z,22.50
2019-06-10T10:29:55.080Z,22.60
2019-06-10T10:32:23.168Z,22.90
2019-06-10T10:34:51.462Z,23.50
2019-06-10T10:37:19.775Z,24.60
2019-06-10T10:39:47.121Z,25.80
2019-06-10T10:42:14.865Z,27.40
2019-06-10T10:44:46.202Z,28.80
2019-06-10T10:47:12.465Z,29.50
2019-06-10T10:49:40.119Z,30.40
2019-06-10T10:52:07.582Z,30.40
2019-06-10T10:54:36.818Z,30.40
2019-06-10T10:57:04.490Z,31.60
2019-06-10T10:59:33.252Z,32.70
2019-06-10T11:02:02.412Z,32.60
2019-06-10T11:04:32.793Z,33.00
2019-06-10T11:07:01.181Z,33.70
2019-06-10T11:09:29.645Z,34.20
2019-06-10T11:11:59.873Z,35.00
2019-06-10T11:14:28.311Z,35.70
2019-06-10T11:16:57.445Z,35.20
2019-06-10T11:19:26.596Z,34.40
2019-06-10T11:21:54.173Z,35.20
2019-06-10T11:24:33.617Z,34.80
2019-06-10T11:26:56.038Z,34.10
2019-06-10T11:29:20.670Z,34.10
2019-06-10T11:31:48.493Z,34.90
2019-06-10T11:34:19.532Z,36.00
2019-06-10T11:36:46.149Z,35.90
2019-06-10T11:39:14.079Z,36.50
2019-06-10T11:41:43.120Z,35.30
2019-06-10T11:44:10.934Z,36.50
2019-06-10T11:46:38.740Z,36.10
2019-06-10T11:49:06.139Z,36.20
2019-06-10T11:51:33.656Z,35.30
2019-06-10T11:54:03.280Z,35.10
2019-06-10T11:56:33.489Z,35.70
2019-06-10T11:59:03.123Z,36.40
2019-06-10T12:01:29.028Z,36.00
2019-06-10T12:03:58.567Z,36.50
2019-06-10T12:06:26.368Z,36.20
2019-06-10T12:08:58.126Z,36.60
2019-06-10T12:11:23.222Z,36.70
2019-06-10T12:13:53.711Z,35.70
2019-06-10T12:17:14.711Z,36.10
2019-06-10T12:18:49.666Z,35.80
2019-06-10T12:21:17.076Z,35.50
2019-06-10T12:23:44.847Z,35.00
2019-06-10T12:26:12.688Z,34.20
2019-06-10T12:28:42.895Z,33.50
2019-06-10T12:31:09.555Z,32.40
2019-06-10T12:33:37.079Z,31.60
2019-06-10T12:36:07.041Z,31.00
2019-06-10T12:38:33.929Z,30.50
2019-06-10T12:41:07.470Z,30.10
2019-06-10T12:43:32.581Z,29.40
2019-06-10T12:46:01.739Z,29.30
2019-06-10T12:48:33.190Z,29.20
2019-06-10T12:51:01.713Z,29.10
2019-06-10T12:53:28.830Z,28.90
2019-06-10T12:55:57.627Z,28.60
2019-06-10T12:58:25.909Z,28.90
2019-06-10T13:00:55.413Z,29.20
2019-06-10T13:03:23.735Z,29.50
2019-06-10T13:05:53.203Z,29.50
2019-06-10T13:08:23.836Z,29.50
2019-06-10T13:10:53.037Z,29.70
2019-06-10T13:13:22.483Z,29.50
2019-06-10T13:15:49.692Z,29.90
2019-06-10T13:18:19.539Z,30.00
2019-06-10T13:20:47.059Z,31.00
2019-06-10T13:23:23.293Z,30.10
2019-06-10T13:25:54.510Z,30.20
2019-06-10T13:28:14.044Z,30.00
2019-06-10T13:30:42.821Z,29.90
2019-06-10T13:33:12.000Z,29.20
2019-06-10T13:35:39.804Z,28.70
2019-06-10T13:38:08.453Z,28.30
2019-06-10T13:40:36.375Z,27.80
2019-06-10T13:43:03.985Z,28.00
2019-06-10T13:45:33.226Z,28.00
2019-06-10T13:48:04.360Z,28.10
2019-06-10T13:50:30.040Z,28.10
2019-06-10T13:52:58.675Z,28.30
2019-06-10T13:55:26.358Z,28.50
2019-06-10T13:57:54.244Z,28.40
2019-06-10T14:00:24.144Z,28.40
2019-06-10T14:02:52.271Z,28.50
2019-06-10T14:05:22.564Z,28.40
2019-06-10T14:07:49.384Z,27.00
2019-06-10T14:10:18.400Z,28.10
2019-06-10T14:12:49.024Z,28.30
2019-06-10T14:15:17.184Z,28.10
2019-06-10T14:17:45.175Z,27.80
2019-06-10T14:20:15.433Z,27.80
2019-06-10T14:22:43.356Z,27.60
2019-06-10T14:25:12.355Z,27.40
2019-06-10T14:27:42.531Z,27.10
2019-06-10T14:30:13.522Z,27.00
2019-06-10T14:32:39.483Z,26.90
2019-06-10T14:35:10.029Z,26.80
2019-06-10T14:37:39.268Z,26.80
2019-06-10T14:40:08.510Z,26.80
2019-06-10T14:42:36.198Z,26.60
2019-06-10T14:45:04.721Z,26.60
2019-06-10T14:47:32.526Z,26.40
2019-06-10T14:50:00.061Z,26.20
2019-06-10T14:52:27.569Z,25.90
2019-06-10T14:54:57.531Z,25.40
2019-06-10T14:57:24.785Z,25.20
2019-06-10T14:59:53.171Z,24.90
2019-06-10T15:02:21.134Z,24.90
2019-06-10T15:04:48.685Z,24.60
2019-06-10T15:07:16.142Z,24.30
2019-06-10T15:09:43.960Z,24.10
2019-06-10T15:12:12.291Z,24.00
2019-06-10T15:14:42.724Z,23.80
2019-06-10T15:17:10.690Z,23.80
2019-06-10T15:19:38.205Z,23.60
2019-06-10T15:22:05.738Z,23.50
2019-06-10T15:24:33.575Z,23.30
2019-06-10T15:27:11.898Z,22.80
2019-06-10T15:29:32.810Z,23.00
2019-06-10T15:32:13.438Z,22.80
2019-06-10T15:34:29.635Z,22.60
2019-06-10T15:36:57.112Z,22.40
2019-06-10T15:39:24.634Z,22.40
2019-06-10T15:41:52.342Z,22.30
2019-06-10T15:44:37.347Z,22.20
2019-06-10T15:46:52.296Z,22.20
2019-06-10T15:49:21.129Z,22.00
2019-06-10T15:51:48.730Z,21.90
2019-06-10T15:54:18.980Z,21.70
2019-06-10T15:56:52.692Z,21.60
2019-06-10T15:59:16.372Z,21.30
2019-06-10T16:01:44.099Z,21.20
2019-06-10T16:04:14.008Z,21.10
2019-06-10T16:06:42.510Z,20.90
2019-06-10T16:09:12.153Z,20.80
2019-06-10T16:11:40.472Z,20.80
2019-06-10T16:14:08.818Z,20.80
2019-06-10T16:16:36.285Z,20.80
2019-06-10T16:19:03.908Z,20.80
2019-06-10T16:21:31.803Z,19.40
2019-06-10T16:23:59.355Z,20.70
2019-06-10T16:26:27.217Z,20.70
2019-06-10T16:28:54.692Z,20.70
2019-06-10T16:31:25.618Z,20.60
2019-06-10T16:33:52.739Z,20.70
2019-06-10T16:36:21.831Z,20.60
2019-06-10T16:38:49.664Z,20.60
2019-06-10T16:41:19.428Z,20.60
2019-06-10T16:43:47.022Z,20.50
2019-06-10T16:46:14.403Z,20.40
2019-06-10T16:48:43.557Z,20.40
2019-06-10T16:51:13.260Z,20.40
2019-06-10T16:53:42.491Z,20.40
2019-06-10T16:56:12.111Z,20.20
2019-06-10T16:58:39.064Z,20.00
2019-06-10T17:01:06.595Z,19.80
2019-06-10T17:03:34.119Z,19.60
2019-06-10T17:06:02.562Z,19.70
2019-06-10T17:08:30.349Z,19.70
2019-06-10T17:10:57.903Z,19.70
2019-06-10T17:13:28.522Z,19.80
2019-06-10T17:15:56.485Z,19.80
2019-06-10T17:18:26.255Z,19.70
2019-06-10T17:20:53.683Z,19.60
2019-06-10T17:23:24.611Z,19.50
2019-06-10T17:25:53.432Z,19.50
2019-06-10T17:28:25.588Z,19.60
2019-06-10T17:30:53.000Z,19.50
2019-06-10T17:33:22.911Z,19.50
2019-06-10T17:35:52.310Z,19.40
2019-06-10T17:38:20.475Z,19.40
2019-06-10T17:40:48.043Z,19.30
2019-06-10T17:43:15.459Z,19.20
2019-06-10T17:45:42.923Z,19.10
2019-06-10T17:48:12.845Z,19.00
2019-06-10T17:50:40.122Z,18.90
2019-06-10T17:53:07.658Z,18.80
2019-06-10T17:55:35.728Z,18.70
2019-06-10T17:58:03.349Z,18.60
2019-06-10T18:00:34.452Z,18.60
2019-06-10T18:03:03.484Z,18.60
2019-06-10T18:05:31.135Z,18.60
2019-06-10T18:07:58.884Z,18.70
2019-06-10T18:10:27.677Z,18.80
2019-06-10T18:12:55.763Z,18.70
2019-06-10T18:15:24.002Z,18.80
2019-06-10T18:17:52.479Z,18.90
2019-06-10T18:20:22.482Z,18.90
2019-06-10T18:22:52.826Z,18.80
2019-06-10T18:25:19.856Z,18.70
2019-06-10T18:27:47.249Z,17.50
2019-06-10T18:30:15.326Z,18.60
2019-06-10T18:32:43.068Z,18.50
2019-06-10T18:35:10.934Z,18.50
2019-06-10T18:37:39.143Z,18.60
2019-06-10T18:40:07.723Z,18.60
2019-06-10T18:42:36.210Z,18.60
2019-06-10T18:45:04.791Z,18.50
2019-06-10T18:47:34.044Z,18.50
2019-06-10T18:50:01.544Z,18.50
2019-06-10T18:52:29.104Z,18.40
2019-06-10T18:54:57.024Z,18.40
2019-06-10T18:57:24.516Z,18.20
2019-06-10T18:59:52.391Z,18.10
2019-06-10T19:02:19.930Z,18.00
2019-06-10T19:04:47.792Z,18.80
2019-06-10T19:07:15.354Z,18.00
2019-06-10T19:09:47.889Z,17.90
2019-06-10T19:12:13.463Z,18.00
2019-06-10T19:14:42.827Z,18.00
2019-06-10T19:17:12.344Z,17.90
2019-06-10T19:19:40.978Z,17.90
2019-06-10T19:22:09.635Z,17.90
2019-06-10T19:24:38.416Z,17.80
2019-06-10T19:27:06.480Z,17.70
2019-06-10T19:29:40.987Z,17.60
2019-06-10T19:32:04.146Z,17.60
2019-06-10T19:34:31.751Z,17.50
2019-06-10T19:36:59.230Z,17.40
2019-06-10T19:39:26.661Z,17.40
2019-06-10T19:41:54.504Z,17.30
2019-06-10T19:44:23.461Z,17.30
2019-06-10T19:46:52.237Z,17.30
2019-06-10T19:49:19.842Z,17.20
2019-06-10T19:51:47.758Z,17.20
2019-06-10T19:54:15.178Z,17.20
2019-06-10T19:56:43.734Z,17.20
2019-06-10T19:59:12.696Z,17.10
2019-06-10T20:01:41.895Z,17.10
2019-06-10T20:04:09.551Z,17.00
2019-06-10T20:06:37.857Z,17.00
2019-06-10T20:09:07.830Z,17.00
2019-06-10T20:11:36.136Z,16.90
2019-06-10T20:14:03.948Z,16.90
2019-06-10T20:16:31.429Z,16.90
2019-06-10T20:18:58.967Z,16.80
2019-06-10T20:21:26.438Z,16.70
2019-06-10T20:23:53.901Z,16.70
2019-06-10T20:26:22.528Z,16.70
2019-06-10T20:28:53.086Z,16.60
2019-06-10T20:31:22.044Z,16.60
2019-06-10T20:33:52.185Z,16.60
2019-06-10T20:36:23.387Z,16.60
2019-06-10T20:38:48.861Z,16.60
2019-06-10T20:41:16.951Z,16.50
2019-06-10T20:43:47.112Z,16.50
2019-06-10T20:46:13.878Z,16.50
2019-06-10T20:48:45.383Z,15.60
2019-06-10T20:51:12.884Z,16.60
2019-06-10T20:53:42.778Z,16.60
2019-06-10T20:56:09.815Z,16.60
2019-06-10T20:58:39.183Z,16.70
2019-06-10T21:01:06.677Z,16.70
2019-06-10T21:03:34.340Z,16.70
2019-06-10T21:06:03.396Z,18.40
2019-06-10T21:08:33.189Z,16.80
2019-06-10T21:11:02.928Z,16.80
2019-06-10T21:13:32.602Z,16.90
2019-06-10T21:15:59.569Z,16.80
2019-06-10T21:18:27.095Z,16.80
2019-06-10T21:20:56.283Z,16.80
2019-06-10T21:23:23.818Z,16.70
2019-06-10T21:25:52.513Z,16.80
2019-06-10T21:28:20.128Z,16.70
2019-06-10T21:30:53.387Z,16.70
2019-06-10T21:33:17.150Z,16.60
2019-06-10T21:35:46.857Z,16.60
2019-06-10T21:38:14.032Z,16.60
2019-06-10T21:40:42.513Z,16.60
2019-06-10T21:43:12.866Z,16.60
2019-06-10T21:45:42.469Z,16.60
2019-06-10T21:48:09.757Z,16.70
2019-06-10T21:50:37.146Z,16.70
2019-06-10T21:53:04.593Z,16.70
2019-06-10T21:55:33.200Z,16.70
2019-06-10T21:58:03.415Z,16.70
2019-06-10T22:00:59.362Z,16.80
2019-06-10T22:03:15.031Z,16.80
2019-06-10T22:05:44.139Z,16.80
2019-06-10T22:08:12.558Z,16.90
2019-06-10T22:10:42.501Z,16.90
2019-06-10T22:13:12.137Z,16.80
2019-06-10T22:15:39.298Z,16.80
2019-06-10T22:18:06.780Z,16.80
2019-06-10T22:20:34.165Z,16.80
2019-06-10T22:23:02.579Z,16.80
2019-06-10T22:25:32.658Z,16.90
2019-06-10T22:27:59.584Z,16.90
2019-06-10T22:30:26.968Z,16.90
2019-06-10T22:32:56.520Z,16.80
2019-06-10T22:35:23.783Z,16.90
2019-06-10T22:37:52.591Z,16.90
2019-06-10T22:40:22.386Z,16.80
2019-06-10T22:42:52.471Z,16.80
2019-06-10T22:45:19.521Z,16.80
2019-06-10T22:47:47.651Z,16.90
2019-06-10T22:50:15.430Z,16.80
2019-06-10T22:52:42.823Z,16.80
2019-06-10T22:55:12.818Z,16.80
2019-06-10T22:57:43.714Z,16.80
2019-06-10T23:00:10.061Z,16.80
2019-06-10T23:02:37.583Z,16.80
2019-06-10T23:05:05.690Z,16.80
2019-06-10T23:07:33.333Z,16.80
2019-06-10T23:10:03.094Z,16.80
2019-06-10T23:12:30.118Z,16.80
2019-06-10T23:14:57.799Z,16.90
2019-06-10T23:17:25.551Z,16.80
2019-06-10T23:19:53.924Z,16.80
2019-06-10T23:22:22.419Z,16.80
2019-06-10T23:24:51.338Z,16.80
2019-06-10T23:27:19.000Z,16.90
2019-06-10T23:29:46.839Z,16.90
2019-06-10T23:32:14.363Z,16.90
2019-06-10T23:34:42.354Z,16.80
2019-06-10T23:37:12.400Z,16.80
2019-06-10T23:39:42.617Z,16.80
2019-06-10T23:42:12.224Z,16.80
2019-06-10T23:44:39.789Z,16.80
2019-06-10T23:47:07.259Z,16.90
2019-06-10T23:49:34.761Z,16.80
2019-06-10T23:52:04.878Z,16.90
2019-06-10T23:54:32.287Z,16.80
2019-06-10T23:57:01.447Z,16.80
2019-06-10T23:59:29.115Z,16.80
